Time;durP1;ratioP1;P1;durP2;ratioP2;P2;SDS_P1;SDS_P2;PMS_P1;PMS_P2;Temp;Humidity;BMP_temperature;BMP_pressure;BME280_temperature;BME280_humidity;BME280_pressure;Samples;Min_cycle;Max_cycle;Signal;HPM_P1;HPM_P2
2024/01/21 00:00:29;;;;;;;20.45;6.35;;;;;;;;;;4980808;28;20025;-59
2024/01/21 00:02:54;;;;;;;21.13;6.57;;;;;;;;;;4977692;28;20073;-61
2024/01/21 00:05:19;;;;;;;18.20;6.05;;;;;;;;;;4981077;28;20637;-58
2024/01/21 00:07:45;;;;;;;19.67;6.22;;;;;;;;;;4980580;28;20027;-59
2024/01/21 00:10:10;;;;;;;20.13;5.90;;;;;;;;;;4977189;28;20010;-59
2024/01/21 00:12:35;;;;;;;17.80;6.03;;;;;;;;;;4982213;28;20636;-59
2024/01/21 00:15:01;;;;;;;20.48;6.50;;;;;;;;;;4981979;28;20034;-59
2024/01/21 00:17:26;;;;;;;20.42;5.93;;;;;;;;;;4986642;28;20366;-58
2024/01/21 00:19:51;;;;;;;20.13;6.18;;;;;;;;;;4986662;28;20025;-59
2024/01/21 00:22:16;;;;;;;18.75;5.95;;;;;;;;;;4992011;28;20450;-59
2024/01/21 00:24:42;;;;;;;19.00;5.50;;;;;;;;;;4993415;28;20113;-59
2024/01/21 00:27:07;;;;;;;19.77;5.70;;;;;;;;;;5002707;28;20280;-59
2024/01/21 00:29:32;;;;;;;19.00;5.87;;;;;;;;;;4986010;28;20311;-58
2024/01/21 00:31:57;;;;;;;19.48;5.75;;;;;;;;;;4979568;28;20332;-58
2024/01/21 00:34:22;;;;;;;18.97;6.07;;;;;;;;;;4978732;28;20030;-60
2024/01/21 00:36:47;;;;;;;18.97;5.63;;;;;;;;;;4977395;28;20376;-60
2024/01/21 00:39:13;;;;;;;19.67;5.47;;;;;;;;;;4976633;28;20265;-59
2024/01/21 00:41:38;;;;;;;19.77;5.80;;;;;;;;;;4980381;28;20273;-59
2024/01/21 00:44:03;;;;;;;19.17;5.47;;;;;;;;;;4977664;28;21019;-60
2024/01/21 00:46:29;;;;;;;18.52;5.43;;;;;;;;;;4979160;28;20552;-59
2024/01/21 00:48:54;;;;;;;19.35;5.55;;;;;;;;;;4978354;28;20517;-58
2024/01/21 00:51:19;;;;;;;20.17;5.78;;;;;;;;;;4981830;28;20069;-58
2024/01/21 00:53:44;;;;;;;19.90;5.77;;;;;;;;;;4990023;28;20029;-59
2024/01/21 00:56:10;;;;;;;19.27;6.22;;;;;;;;;;5001557;28;20270;-59
2024/01/21 00:58:35;;;;;;;18.00;5.50;;;;;;;;;;4993758;28;20414;-60
2024/01/21 01:01:00;;;;;;;18.83;5.63;;;;;;;;;;4993884;28;20361;-58
2024/01/21 01:03:25;;;;;;;18.27;5.47;;;;;;;;;;4984297;28;20014;-60
2024/01/21 01:05:50;;;;;;;22.02;5.47;;;;;;;;;;4983444;28;20269;-60
2024/01/21 01:08:17;;;;;;;19.20;6.10;;;;;;;;;;4993324;28;20023;-58
2024/01/21 01:10:42;;;;;;;18.88;5.90;;;;;;;;;;4992763;28;20273;-58
2024/01/21 01:13:08;;;;;;;20.85;6.05;;;;;;;;;;4998638;28;20028;-58
2024/01/21 01:15:33;;;;;;;19.83;5.63;;;;;;;;;;4995922;28;20120;-59
2024/01/21 01:17:58;;;;;;;19.43;5.60;;;;;;;;;;4995951;28;20285;-59
2024/01/21 01:20:23;;;;;;;18.73;5.77;;;;;;;;;;4994268;28;20356;-59
2024/01/21 01:22:48;;;;;;;19.47;5.17;;;;;;;;;;4999225;28;20372;-59
2024/01/21 01:25:13;;;;;;;19.30;5.70;;;;;;;;;;4991235;28;20610;-59
2024/01/21 01:27:39;;;;;;;19.77;5.45;;;;;;;;;;4992338;28;20339;-58
2024/01/21 01:30:04;;;;;;;19.50;5.45;;;;;;;;;;4989065;28;20018;-58
2024/01/21 01:32:29;;;;;;;16.70;5.13;;;;;;;;;;4986265;28;20134;-60
2024/01/21 01:34:55;;;;;;;17.77;5.40;;;;;;;;;;4979330;28;20023;-60
2024/01/21 01:37:23;;;;;;;18.85;5.22;;;;;;;;;;4991171;28;20343;-59
2024/01/21 01:39:48;;;;;;;18.45;5.50;;;;;;;;;;4985858;28;20030;-59
2024/01/21 01:42:13;;;;;;;18.97;5.47;;;;;;;;;;4993966;28;20477;-59
2024/01/21 01:44:40;;;;;;;19.63;5.60;;;;;;;;;;4994412;28;20311;-58
2024/01/21 01:47:06;;;;;;;19.40;5.55;;;;;;;;;;4999706;28;20108;-59
2024/01/21 01:49:31;;;;;;;19.77;5.45;;;;;;;;;;4993285;28;21090;-59
2024/01/21 01:51:57;;;;;;;18.92;5.38;;;;;;;;;;4987687;28;20026;-59
2024/01/21 01:54:23;;;;;;;18.67;5.30;;;;;;;;;;4992584;28;20076;-59
2024/01/21 01:56:48;;;;;;;17.05;5.50;;;;;;;;;;4981001;28;21285;-59
2024/01/21 01:59:15;;;;;;;21.40;5.53;;;;;;;;;;4980099;28;20026;-59
2024/01/21 02:01:40;;;;;;;17.98;5.20;;;;;;;;;;4982486;28;20029;-58
2024/01/21 02:04:07;;;;;;;19.33;5.82;;;;;;;;;;4983887;28;20019;-60
2024/01/21 02:06:33;;;;;;;21.27;5.80;;;;;;;;;;4988939;28;20021;-59
2024/01/21 02:08:58;;;;;;;18.15;5.30;;;;;;;;;;4979129;28;20026;-59
2024/01/21 02:11:23;;;;;;;18.77;5.38;;;;;;;;;;4991318;28;20025;-59
2024/01/21 02:13:49;;;;;;;19.45;6.03;;;;;;;;;;5000322;28;20025;-58
2024/01/21 02:16:14;;;;;;;18.63;5.88;;;;;;;;;;4984169;28;20497;-57
2024/01/21 02:18:41;;;;;;;19.25;5.40;;;;;;;;;;4996998;28;20381;-58
2024/01/21 02:21:07;;;;;;;19.40;5.80;;;;;;;;;;4989020;28;20057;-59
2024/01/21 02:23:32;;;;;;;18.80;5.18;;;;;;;;;;4996031;28;20093;-58
2024/01/21 02:25:57;;;;;;;18.23;4.93;;;;;;;;;;4995251;28;20011;-59
2024/01/21 02:28:22;;;;;;;17.80;5.13;;;;;;;;;;4996347;28;20071;-59
2024/01/21 02:30:47;;;;;;;16.60;4.53;;;;;;;;;;4999219;28;20634;-59
2024/01/21 02:33:13;;;;;;;16.80;4.80;;;;;;;;;;4995265;28;20281;-59
2024/01/21 02:35:38;;;;;;;16.85;4.32;;;;;;;;;;4984932;28;20862;-58
2024/01/21 02:38:03;;;;;;;17.15;4.47;;;;;;;;;;4992604;28;20120;-58
2024/01/21 02:40:29;;;;;;;16.33;4.75;;;;;;;;;;4994322;28;20108;-59
2024/01/21 02:42:54;;;;;;;18.85;4.72;;;;;;;;;;4988941;28;20037;-58
2024/01/21 02:45:19;;;;;;;17.43;4.80;;;;;;;;;;4978645;28;20026;-57
2024/01/21 02:47:44;;;;;;;19.77;5.03;;;;;;;;;;4975346;28;20289;-59
2024/01/21 02:50:10;;;;;;;18.73;4.83;;;;;;;;;;4979215;28;20284;-60
2024/01/21 02:52:35;;;;;;;15.43;4.40;;;;;;;;;;4991679;28;20370;-59
2024/01/21 02:55:00;;;;;;;17.10;4.47;;;;;;;;;;4998397;28;20041;-59
2024/01/21 02:57:25;;;;;;;17.35;4.78;;;;;;;;;;4995909;28;20025;-58
2024/01/21 02:59:51;;;;;;;15.53;4.63;;;;;;;;;;4989927;28;20097;-60
2024/01/21 03:02:16;;;;;;;15.68;4.32;;;;;;;;;;4991553;28;20304;-59
2024/01/21 03:04:41;;;;;;;16.60;4.30;;;;;;;;;;4980709;28;20441;-58
2024/01/21 03:07:06;;;;;;;12.57;3.65;;;;;;;;;;4985853;28;20261;-58
2024/01/21 03:09:32;;;;;;;17.40;4.00;;;;;;;;;;4984194;28;20056;-58
2024/01/21 03:11:57;;;;;;;16.42;4.25;;;;;;;;;;4977860;28;20025;-58
2024/01/21 03:14:22;;;;;;;15.77;4.23;;;;;;;;;;4995546;28;20030;-58
2024/01/21 03:16:47;;;;;;;13.90;3.60;;;;;;;;;;4986449;28;20272;-58
2024/01/21 03:19:13;;;;;;;12.98;3.65;;;;;;;;;;4990403;28;20553;-60
2024/01/21 03:21:38;;;;;;;13.63;4.13;;;;;;;;;;4988132;28;20029;-59
2024/01/21 03:24:03;;;;;;;14.63;4.00;;;;;;;;;;4992501;28;20033;-59
2024/01/21 03:26:28;;;;;;;12.65;3.80;;;;;;;;;;4997511;28;20490;-59
2024/01/21 03:28:53;;;;;;;15.50;3.80;;;;;;;;;;4981519;28;20040;-58
2024/01/21 03:31:19;;;;;;;14.57;3.27;;;;;;;;;;4981383;28;20485;-59
2024/01/21 03:33:44;;;;;;;14.90;3.50;;;;;;;;;;4980718;28;20285;-59
2024/01/21 03:36:10;;;;;;;11.80;3.60;;;;;;;;;;4981586;28;20018;-60
2024/01/21 03:38:35;;;;;;;14.00;3.45;;;;;;;;;;4982143;28;20088;-59
2024/01/21 03:41:01;;;;;;;10.80;3.53;;;;;;;;;;4988364;28;20505;-58
2024/01/21 03:43:26;;;;;;;11.73;3.23;;;;;;;;;;4997679;28;20368;-59
2024/01/21 03:45:51;;;;;;;13.02;3.53;;;;;;;;;;5006603;28;20343;-57
2024/01/21 03:48:16;;;;;;;12.48;3.60;;;;;;;;;;5002574;28;20458;-59
2024/01/21 03:50:41;;;;;;;13.90;3.77;;;;;;;;;;5000287;28;20446;-58
2024/01/21 03:53:07;;;;;;;12.03;3.47;;;;;;;;;;4998026;28;20320;-58
2024/01/21 03:55:32;;;;;;;10.20;3.00;;;;;;;;;;5001440;28;20264;-59
2024/01/21 03:57:57;;;;;;;11.80;3.33;;;;;;;;;;4988130;28;20784;-58
2024/01/21 04:00:22;;;;;;;12.98;3.33;;;;;;;;;;4991172;28;20397;-58
2024/01/21 04:02:47;;;;;;;12.67;3.47;;;;;;;;;;5002928;28;20486;-58
2024/01/21 04:05:13;;;;;;;13.43;3.20;;;;;;;;;;4990970;28;20364;-59
2024/01/21 04:07:38;;;;;;;11.57;3.50;;;;;;;;;;4993143;28;20029;-59
2024/01/21 04:10:04;;;;;;;11.65;3.45;;;;;;;;;;4992253;28;20022;-59
2024/01/21 04:12:29;;;;;;;14.10;3.58;;;;;;;;;;5001585;28;20026;-58
2024/01/21 04:14:54;;;;;;;10.50;3.13;;;;;;;;;;4988953;28;20655;-58
2024/01/21 04:17:21;;;;;;;14.03;3.83;;;;;;;;;;4993409;28;20320;-58
2024/01/21 04:19:46;;;;;;;13.57;3.63;;;;;;;;;;4999343;28;20785;-60
2024/01/21 04:22:11;;;;;;;15.77;3.90;;;;;;;;;;4997676;28;20046;-59
2024/01/21 04:24:36;;;;;;;12.35;3.28;;;;;;;;;;5000776;28;20269;-58
2024/01/21 04:27:01;;;;;;;14.53;3.83;;;;;;;;;;5002391;28;20026;-58
2024/01/21 04:29:27;;;;;;;15.23;3.60;;;;;;;;;;4992765;28;20258;-58
2024/01/21 04:31:52;;;;;;;14.73;3.70;;;;;;;;;;5001703;28;20026;-57
2024/01/21 04:34:17;;;;;;;13.97;3.70;;;;;;;;;;4993665;28;20288;-58
2024/01/21 04:36:43;;;;;;;13.47;3.70;;;;;;;;;;4997032;28;20399;-58
2024/01/21 04:39:08;;;;;;;11.43;3.58;;;;;;;;;;5003481;28;20649;-59
2024/01/21 04:41:33;;;;;;;14.40;3.50;;;;;;;;;;5000120;28;20018;-59
2024/01/21 04:43:59;;;;;;;12.18;3.40;;;;;;;;;;4991150;28;20033;-58
2024/01/21 04:46:24;;;;;;;13.13;3.45;;;;;;;;;;4986790;28;20390;-58
2024/01/21 04:48:49;;;;;;;17.50;3.75;;;;;;;;;;4999220;28;20026;-57
2024/01/21 04:51:14;;;;;;;15.70;3.90;;;;;;;;;;4994946;28;20395;-57
2024/01/21 04:53:40;;;;;;;17.73;4.13;;;;;;;;;;5003569;28;20050;-58
2024/01/21 04:56:05;;;;;;;14.90;4.03;;;;;;;;;;5002537;28;20014;-59
2024/01/21 04:58:30;;;;;;;16.33;4.47;;;;;;;;;;4999003;28;20022;-58
2024/01/21 05:00:56;;;;;;;17.13;4.30;;;;;;;;;;4992358;28;20041;-57
2024/01/21 05:03:21;;;;;;;14.73;4.10;;;;;;;;;;4985945;28;20282;-59
2024/01/21 05:05:47;;;;;;;14.50;4.20;;;;;;;;;;5003810;28;20389;-59
2024/01/21 05:08:13;;;;;;;13.82;4.18;;;;;;;;;;4999563;28;20273;-59
2024/01/21 05:10:38;;;;;;;17.75;4.40;;;;;;;;;;5000442;28;20096;-59
2024/01/21 05:13:03;;;;;;;15.45;4.50;;;;;;;;;;5003432;28;20018;-59
2024/01/21 05:15:28;;;;;;;16.60;4.13;;;;;;;;;;4991885;28;20109;-59
2024/01/21 05:17:56;;;;;;;16.87;4.73;;;;;;;;;;5001171;28;20060;-59
2024/01/21 05:20:21;;;;;;;16.63;4.50;;;;;;;;;;4999168;28;20621;-58
2024/01/21 05:22:46;;;;;;;17.40;4.43;;;;;;;;;;5003140;28;20125;-58
2024/01/21 05:25:11;;;;;;;17.47;4.30;;;;;;;;;;5000176;28;20269;-57
2024/01/21 05:27:37;;;;;;;18.00;4.93;;;;;;;;;;5000286;28;20281;-58
2024/01/21 05:30:03;;;;;;;19.07;5.57;;;;;;;;;;4998684;28;20273;-59
2024/01/21 05:32:28;;;;;;;17.88;4.80;;;;;;;;;;5000945;28;20277;-59
2024/01/21 05:34:54;;;;;;;16.95;4.70;;;;;;;;;;4995785;28;20396;-59
2024/01/21 05:37:19;;;;;;;17.95;5.38;;;;;;;;;;4993185;28;20026;-59
2024/01/21 05:39:44;;;;;;;17.33;5.13;;;;;;;;;;4995084;28;20430;-59
2024/01/21 05:42:09;;;;;;;15.70;4.77;;;;;;;;;;5001565;28;20303;-59
2024/01/21 05:44:34;;;;;;;18.87;5.17;;;;;;;;;;4997576;28;20650;-60
2024/01/21 05:47:00;;;;;;;19.10;5.30;;;;;;;;;;4992230;28;20277;-59
2024/01/21 05:49:25;;;;;;;16.83;4.82;;;;;;;;;;4998495;28;20152;-58
2024/01/21 05:51:51;;;;;;;16.67;4.40;;;;;;;;;;4994237;28;20444;-58
2024/01/21 05:54:16;;;;;;;18.45;4.95;;;;;;;;;;4982259;28;20022;-58
2024/01/21 05:56:42;;;;;;;17.42;5.03;;;;;;;;;;4981665;28;20521;-59
2024/01/21 05:59:07;;;;;;;19.20;5.17;;;;;;;;;;4980831;28;20030;-59
2024/01/21 06:01:32;;;;;;;17.25;4.90;;;;;;;;;;4981813;28;20277;-58
2024/01/21 06:03:57;;;;;;;18.87;5.33;;;;;;;;;;4981410;28;20022;-59
2024/01/21 06:06:22;;;;;;;17.73;5.20;;;;;;;;;;4981072;28;20277;-61
2024/01/21 06:08:47;;;;;;;19.17;5.30;;;;;;;;;;4978735;28;20296;-59
2024/01/21 06:11:13;;;;;;;18.03;5.00;;;;;;;;;;4984628;28;20273;-60
2024/01/21 06:13:38;;;;;;;18.30;5.10;;;;;;;;;;4994028;28;20276;-58
2024/01/21 06:16:03;;;;;;;17.48;5.13;;;;;;;;;;4992899;28;20034;-58
2024/01/21 06:18:29;;;;;;;18.02;5.68;;;;;;;;;;4996054;28;20045;-58
2024/01/21 06:20:54;;;;;;;17.20;5.20;;;;;;;;;;4997440;28;20053;-59
2024/01/21 06:23:19;;;;;;;16.60;4.82;;;;;;;;;;4997961;28;20026;-59
2024/01/21 06:25:44;;;;;;;16.80;4.87;;;;;;;;;;4998121;28;20382;-58
2024/01/21 06:28:10;;;;;;;19.95;5.75;;;;;;;;;;4992703;28;20269;-59
2024/01/21 06:30:35;;;;;;;19.05;5.30;;;;;;;;;;4990367;28;20014;-59
2024/01/21 06:33:00;;;;;;;19.33;5.80;;;;;;;;;;4996464;28;20061;-59
2024/01/21 06:35:26;;;;;;;19.52;5.30;;;;;;;;;;4996743;28;20265;-59
2024/01/21 06:37:52;;;;;;;18.42;5.07;;;;;;;;;;4996441;28;20321;-59
2024/01/21 06:40:18;;;;;;;19.83;5.88;;;;;;;;;;4990761;28;20478;-61
2024/01/21 06:42:43;;;;;;;17.05;5.13;;;;;;;;;;4994268;28;20108;-60
2024/01/21 06:45:11;;;;;;;18.23;5.07;;;;;;;;;;4995574;28;20072;-60
2024/01/21 06:47:37;;;;;;;17.98;5.20;;;;;;;;;;4989973;28;20274;-60
2024/01/21 06:50:02;;;;;;;15.50;4.50;;;;;;;;;;4996686;28;20052;-60
2024/01/21 06:52:27;;;;;;;18.95;5.63;;;;;;;;;;4995610;28;20014;-60
2024/01/21 06:54:52;;;;;;;18.65;5.45;;;;;;;;;;5000628;28;20088;-59
2024/01/21 06:57:17;;;;;;;18.47;5.27;;;;;;;;;;4985562;28;20269;-60
2024/01/21 06:59:43;;;;;;;19.58;5.03;;;;;;;;;;4996981;28;20257;-59
2024/01/21 07:02:08;;;;;;;17.73;4.73;;;;;;;;;;5001634;28;20045;-59
2024/01/21 07:04:33;;;;;;;19.02;5.78;;;;;;;;;;4998790;28;20792;-59
2024/01/21 07:06:58;;;;;;;17.85;5.70;;;;;;;;;;5001302;28;20038;-59
2024/01/21 07:09:24;;;;;;;18.57;6.10;;;;;;;;;;4995547;28;20026;-59
2024/01/21 07:11:49;;;;;;;19.25;5.60;;;;;;;;;;5006016;28;20268;-60
2024/01/21 07:14:14;;;;;;;18.02;4.70;;;;;;;;;;5001567;28;20076;-58
2024/01/21 07:16:39;;;;;;;19.70;5.93;;;;;;;;;;4993888;28;20041;-60
2024/01/21 07:19:05;;;;;;;17.05;5.00;;;;;;;;;;4995551;28;20285;-58
2024/01/21 07:21:30;;;;;;;18.63;5.23;;;;;;;;;;5004442;28;20435;-58
2024/01/21 07:23:55;;;;;;;19.75;5.38;;;;;;;;;;4997125;28;20272;-59
2024/01/21 07:26:23;;;;;;;17.90;5.20;;;;;;;;;;5002398;28;20026;-59
2024/01/21 07:28:48;;;;;;;17.58;4.95;;;;;;;;;;4980781;28;20028;-59
2024/01/21 07:31:14;;;;;;;18.77;5.40;;;;;;;;;;4978760;28;20899;-60
2024/01/21 07:33:39;;;;;;;18.98;6.07;;;;;;;;;;4986844;28;20323;-59
2024/01/21 07:36:04;;;;;;;18.17;5.68;;;;;;;;;;4986199;28;20488;-59
2024/01/21 07:38:30;;;;;;;20.48;5.72;;;;;;;;;;4985218;28;20124;-59
2024/01/21 07:40:55;;;;;;;15.52;4.43;;;;;;;;;;4981949;28;20445;-59
2024/01/21 07:43:20;;;;;;;19.80;5.93;;;;;;;;;;4988412;28;20458;-59
2024/01/21 07:45:45;;;;;;;18.35;4.93;;;;;;;;;;4984353;28;20151;-60
2024/01/21 07:48:10;;;;;;;19.37;5.43;;;;;;;;;;4984507;28;20029;-60
2024/01/21 07:50:36;;;;;;;18.90;5.33;;;;;;;;;;4982652;28;20828;-59
2024/01/21 07:53:01;;;;;;;16.90;4.80;;;;;;;;;;4980173;28;20258;-60
2024/01/21 07:55:26;;;;;;;14.93;4.53;;;;;;;;;;4979545;28;20492;-59
2024/01/21 07:57:51;;;;;;;19.27;5.13;;;;;;;;;;4979947;28;20293;-59
2024/01/21 08:00:17;;;;;;;19.07;5.37;;;;;;;;;;4978562;28;20319;-61
2024/01/21 08:02:42;;;;;;;19.52;5.35;;;;;;;;;;4978566;28;20257;-61
2024/01/21 08:05:08;;;;;;;17.77;4.63;;;;;;;;;;4982221;28;20400;-61
2024/01/21 08:07:34;;;;;;;15.13;4.30;;;;;;;;;;4979785;28;20276;-61
2024/01/21 08:09:59;;;;;;;17.83;4.97;;;;;;;;;;4977498;28;20508;-60
2024/01/21 08:12:25;;;;;;;17.38;4.53;;;;;;;;;;4981256;28;20022;-60
2024/01/21 08:14:50;;;;;;;15.90;4.40;;;;;;;;;;4979966;28;20017;-62
2024/01/21 08:17:15;;;;;;;19.33;5.13;;;;;;;;;;4979696;28;20042;-59
2024/01/21 08:19:40;;;;;;;19.50;5.40;;;;;;;;;;4978021;28;20319;-60
2024/01/21 08:22:06;;;;;;;18.20;4.88;;;;;;;;;;4981590;28;20701;-61
2024/01/21 08:24:32;;;;;;;18.13;4.72;;;;;;;;;;4980118;28;20100;-59
2024/01/21 08:26:57;;;;;;;16.33;4.87;;;;;;;;;;4981675;28;20595;-61
2024/01/21 08:29:22;;;;;;;20.85;5.35;;;;;;;;;;4979297;28;20265;-64
2024/01/21 08:31:47;;;;;;;15.57;4.43;;;;;;;;;;4978933;28;20468;-65
2024/01/21 08:34:12;;;;;;;17.20;4.83;;;;;;;;;;4977719;28;20549;-61
2024/01/21 08:36:38;;;;;;;18.07;5.20;;;;;;;;;;4975657;28;20276;-60
2024/01/21 08:39:06;;;;;;;18.85;4.70;;;;;;;;;;4980099;28;20630;-59
2024/01/21 08:41:34;;;;;;;17.40;4.85;;;;;;;;;;5003889;28;20097;-61
2024/01/21 08:44:00;;;;;;;18.65;5.03;;;;;;;;;;4991145;28;20833;-60
2024/01/21 08:46:25;;;;;;;17.73;4.80;;;;;;;;;;4995905;28;20113;-60
2024/01/21 08:48:50;;;;;;;17.93;4.87;;;;;;;;;;4977208;28;20027;-60
2024/01/21 08:51:15;;;;;;;20.13;6.10;;;;;;;;;;4976606;28;20415;-60
2024/01/21 08:53:41;;;;;;;15.25;4.70;;;;;;;;;;4979787;28;20273;-60
2024/01/21 08:56:06;;;;;;;17.58;4.70;;;;;;;;;;4977085;28;20029;-60
2024/01/21 08:58:31;;;;;;;16.50;4.53;;;;;;;;;;5000550;28;20038;-60
2024/01/21 09:00:56;;;;;;;20.40;5.10;;;;;;;;;;4993249;28;23756;-62
2024/01/21 09:03:21;;;;;;;19.20;5.30;;;;;;;;;;4975481;28;20018;-62
2024/01/21 09:05:47;;;;;;;18.60;4.77;;;;;;;;;;4976994;28;20032;-63
2024/01/21 09:08:12;;;;;;;16.33;4.78;;;;;;;;;;4980897;28;20265;-62
2024/01/21 09:10:37;;;;;;;18.97;4.73;;;;;;;;;;4974147;28;20124;-62
2024/01/21 09:13:02;;;;;;;15.80;4.95;;;;;;;;;;4980022;28;20261;-61
2024/01/21 09:15:27;;;;;;;17.17;4.93;;;;;;;;;;4974281;28;20018;-62
2024/01/21 09:17:53;;;;;;;17.10;4.87;;;;;;;;;;4997061;28;20485;-61
2024/01/21 09:20:18;;;;;;;17.63;4.60;;;;;;;;;;4991430;28;20269;-62
2024/01/21 09:22:43;;;;;;;18.65;5.28;;;;;;;;;;4987548;28;20351;-62
2024/01/21 09:25:08;;;;;;;16.35;5.18;;;;;;;;;;4991080;28;20460;-62
2024/01/21 09:27:33;;;;;;;15.97;5.00;;;;;;;;;;4991110;28;20041;-61
2024/01/21 09:29:59;;;;;;;20.23;5.57;;;;;;;;;;4990389;28;20273;-61
2024/01/21 09:32:25;;;;;;;16.83;5.10;;;;;;;;;;4988920;28;20293;-61
2024/01/21 09:34:50;;;;;;;16.58;4.68;;;;;;;;;;4989517;28;20273;-62
2024/01/21 09:37:15;;;;;;;16.03;4.53;;;;;;;;;;4986832;28;20030;-62
2024/01/21 09:39:40;;;;;;;16.08;5.05;;;;;;;;;;4987823;28;20277;-62
2024/01/21 09:42:09;;;;;;;19.45;5.07;;;;;;;;;;4987772;28;20018;-62
2024/01/21 09:44:34;;;;;;;16.20;5.10;;;;;;;;;;4987851;28;20018;-62
2024/01/21 09:47:01;;;;;;;15.90;4.60;;;;;;;;;;4987885;28;20030;-62
2024/01/21 09:49:27;;;;;;;18.05;4.82;;;;;;;;;;4988636;28;20022;-62
2024/01/21 09:51:52;;;;;;;18.08;5.13;;;;;;;;;;4995774;28;20140;-61
2024/01/21 09:54:19;;;;;;;17.50;5.18;;;;;;;;;;4997883;28;20105;-62
2024/01/21 09:56:44;;;;;;;18.88;5.93;;;;;;;;;;5003879;28;20038;-61
2024/01/21 09:59:09;;;;;;;19.20;5.40;;;;;;;;;;4994388;28;20080;-62
2024/01/21 10:01:36;;;;;;;18.42;5.50;;;;;;;;;;4997926;28;20402;-61
2024/01/21 10:04:01;;;;;;;17.88;5.40;;;;;;;;;;4993392;28;20627;-61
2024/01/21 10:06:27;;;;;;;17.08;5.13;;;;;;;;;;4998505;28;20033;-61
2024/01/21 10:08:52;;;;;;;15.57;4.87;;;;;;;;;;5008923;28;20022;-61
2024/01/21 10:11:17;;;;;;;17.23;5.20;;;;;;;;;;5001502;28;20844;-61
2024/01/21 10:13:44;;;;;;;17.20;5.23;;;;;;;;;;4996125;28;20288;-61
2024/01/21 10:16:10;;;;;;;15.20;4.30;;;;;;;;;;4998577;28;20677;-61
2024/01/21 10:18:35;;;;;;;18.10;5.00;;;;;;;;;;5007314;28;20040;-61
2024/01/21 10:21:06;;;;;;;18.38;5.20;;;;;;;;;;5008886;28;20026;-61
2024/01/21 10:23:32;;;;;;;17.95;5.05;;;;;;;;;;5009016;28;20037;-61
2024/01/21 10:25:57;;;;;;;17.73;5.35;;;;;;;;;;5009015;28;20018;-61
2024/01/21 10:28:22;;;;;;;17.55;5.32;;;;;;;;;;5008803;28;20034;-62
2024/01/21 10:30:48;;;;;;;18.98;5.22;;;;;;;;;;5008695;28;20022;-62
2024/01/21 10:33:13;;;;;;;18.27;5.07;;;;;;;;;;5003105;28;20022;-62
2024/01/21 10:35:39;;;;;;;19.23;5.60;;;;;;;;;;5004945;28;20113;-62
2024/01/21 10:38:07;;;;;;;17.90;5.43;;;;;;;;;;5000093;28;20033;-61
2024/01/21 10:40:32;;;;;;;18.77;6.18;;;;;;;;;;4993233;28;20029;-62
2024/01/21 10:42:59;;;;;;;18.93;5.13;;;;;;;;;;4998049;28;20018;-62
2024/01/21 10:45:24;;;;;;;20.30;5.90;;;;;;;;;;5004247;28;20277;-61
2024/01/21 10:47:50;;;;;;;17.95;6.03;;;;;;;;;;5012703;28;20386;-62
2024/01/21 10:50:16;;;;;;;19.02;5.80;;;;;;;;;;5012705;28;20042;-61
2024/01/21 10:52:44;;;;;;;20.00;6.03;;;;;;;;;;5012951;28;20022;-62
2024/01/21 10:55:09;;;;;;;19.20;6.25;;;;;;;;;;5012868;28;20057;-62
2024/01/21 10:57:35;;;;;;;19.23;6.20;;;;;;;;;;5007738;28;20135;-61
2024/01/21 11:00:00;;;;;;;16.13;4.93;;;;;;;;;;5003756;28;20022;-62
2024/01/21 11:02:25;;;;;;;20.73;6.28;;;;;;;;;;5004590;28;20258;-61
2024/01/21 11:04:50;;;;;;;19.05;6.50;;;;;;;;;;4986665;28;20450;-62
2024/01/21 11:07:17;;;;;;;19.90;6.20;;;;;;;;;;4991470;28;20097;-62
2024/01/21 11:09:42;;;;;;;18.65;5.78;;;;;;;;;;4991738;28;20261;-62
2024/01/21 11:12:07;;;;;;;19.88;6.47;;;;;;;;;;4992635;28;20493;-61
2024/01/21 11:14:34;;;;;;;20.15;6.75;;;;;;;;;;4991677;28;20021;-61
2024/01/21 11:17:03;;;;;;;20.13;6.78;;;;;;;;;;4992172;28;20120;-61
2024/01/21 11:19:49;;;;;;;17.45;5.05;;;;;;;;;;4991896;28;20431;-61
2024/01/21 11:22:15;;;;;;;21.45;6.30;;;;;;;;;;4992491;28;20108;-62
2024/01/21 11:24:41;;;;;;;21.73;6.47;;;;;;;;;;4992254;28;20069;-61
2024/01/21 11:27:14;;;;;;;16.58;5.72;;;;;;;;;;4990967;28;20019;-61
2024/01/21 11:29:39;;;;;;;19.23;5.75;;;;;;;;;;4990367;28;20491;-62
2024/01/21 11:32:05;;;;;;;18.63;6.00;;;;;;;;;;4990126;28;20025;-62
2024/01/21 11:34:40;;;;;;;18.65;5.72;;;;;;;;;;4990607;28;20324;-62
2024/01/21 11:37:06;;;;;;;18.80;5.60;;;;;;;;;;4988937;28;20089;-62
2024/01/21 11:39:31;;;;;;;18.08;5.80;;;;;;;;;;4990340;28;20470;-62
2024/01/21 11:41:56;;;;;;;19.80;6.10;;;;;;;;;;4991120;28;20014;-61
2024/01/21 11:44:23;;;;;;;19.77;5.80;;;;;;;;;;4991715;28;20746;-62
2024/01/21 11:46:49;;;;;;;20.30;5.93;;;;;;;;;;4991357;28;20285;-62
2024/01/21 11:49:14;;;;;;;19.23;6.07;;;;;;;;;;4991669;28;20026;-62
2024/01/21 11:51:40;;;;;;;20.55;6.20;;;;;;;;;;4991912;28;20418;-62
2024/01/21 11:54:06;;;;;;;18.38;5.35;;;;;;;;;;4992102;28;20061;-62
2024/01/21 11:56:31;;;;;;;17.63;5.40;;;;;;;;;;4991782;28;20458;-62
2024/01/21 11:59:00;;;;;;;18.27;5.40;;;;;;;;;;4992497;28;20034;-62
2024/01/21 12:01:26;;;;;;;17.58;5.43;;;;;;;;;;4979203;28;20026;-62
2024/01/21 12:03:51;;;;;;;17.00;4.90;;;;;;;;;;4982233;28;20029;-63
2024/01/21 12:06:17;;;;;;;18.37;5.50;;;;;;;;;;4978246;28;20331;-63
2024/01/21 12:08:44;;;;;;;19.27;5.25;;;;;;;;;;4981521;28;20360;-62
2024/01/21 12:11:09;;;;;;;20.23;6.32;;;;;;;;;;4978991;28;20959;-62
2024/01/21 12:13:36;;;;;;;18.25;5.60;;;;;;;;;;4979501;28;20109;-61
2024/01/21 12:16:01;;;;;;;18.75;6.55;;;;;;;;;;4983755;28;20037;-61
2024/01/21 12:18:26;;;;;;;19.55;5.53;;;;;;;;;;4980225;28;20026;-62
2024/01/21 12:20:51;;;;;;;20.02;5.70;;;;;;;;;;4978369;28;20088;-61
2024/01/21 12:23:23;;;;;;;19.15;5.28;;;;;;;;;;4977630;28;20029;-62
2024/01/21 12:25:48;;;;;;;18.38;5.93;;;;;;;;;;4977639;28;20067;-62
2024/01/21 12:28:14;;;;;;;19.20;5.55;;;;;;;;;;4980600;28;20397;-62
2024/01/21 12:30:39;;;;;;;18.52;5.50;;;;;;;;;;4976478;28;20109;-62
2024/01/21 12:33:04;;;;;;;21.53;5.90;;;;;;;;;;4974913;28;20541;-62
2024/01/21 12:35:30;;;;;;;17.95;5.63;;;;;;;;;;4983809;28;20268;-63
2024/01/21 12:37:55;;;;;;;17.73;5.43;;;;;;;;;;4980630;28;20038;-62
2024/01/21 12:40:21;;;;;;;17.52;5.88;;;;;;;;;;4975105;28;20084;-62
2024/01/21 12:42:46;;;;;;;16.90;5.35;;;;;;;;;;4975308;28;20022;-61
2024/01/21 12:45:12;;;;;;;17.53;5.03;;;;;;;;;;4974678;28;20072;-61
2024/01/21 12:47:38;;;;;;;21.73;6.50;;;;;;;;;;4975488;28;20756;-61
2024/01/21 12:50:03;;;;;;;17.95;5.80;;;;;;;;;;4978078;28;20053;-61
2024/01/21 12:52:29;;;;;;;18.05;5.00;;;;;;;;;;4974037;28;20630;-61
2024/01/21 12:54:54;;;;;;;19.37;5.87;;;;;;;;;;4976745;28;20370;-61
2024/01/21 12:57:19;;;;;;;17.87;5.43;;;;;;;;;;4973440;28;20280;-62
2024/01/21 12:59:44;;;;;;;17.45;4.78;;;;;;;;;;4976572;28;20071;-62
2024/01/21 13:02:09;;;;;;;18.58;5.47;;;;;;;;;;4978332;28;20089;-62
2024/01/21 13:04:35;;;;;;;17.15;5.60;;;;;;;;;;4976447;28;20022;-62
2024/01/21 13:07:00;;;;;;;18.97;5.90;;;;;;;;;;4974737;28;20014;-62
2024/01/21 13:09:25;;;;;;;19.23;6.07;;;;;;;;;;4982448;28;20629;-62
2024/01/21 13:11:50;;;;;;;20.00;7.40;;;;;;;;;;5001185;28;20021;-62
2024/01/21 13:14:15;;;;;;;19.07;5.87;;;;;;;;;;4996157;28;20052;-61
2024/01/21 13:16:41;;;;;;;18.65;5.72;;;;;;;;;;4987422;28;20266;-62
2024/01/21 13:19:06;;;;;;;17.97;5.73;;;;;;;;;;4997733;28;20580;-61
2024/01/21 13:21:31;;;;;;;19.40;5.90;;;;;;;;;;4979803;28;20365;-61
2024/01/21 13:23:56;;;;;;;19.23;5.90;;;;;;;;;;4974430;28;20297;-61
2024/01/21 13:26:21;;;;;;;17.97;4.93;;;;;;;;;;4974815;28;20273;-62
2024/01/21 13:31:32;;;;;;;;;;;;;;;;;;5009911;28;20437;-61
2024/01/21 13:33:58;;;;;;;17.20;5.22;;;;;;;;;;5009757;28;19932;-61
2024/01/21 13:36:23;;;;;;;18.02;5.60;;;;;;;;;;5007716;28;20689;-61
2024/01/21 13:38:48;;;;;;;17.23;5.70;;;;;;;;;;5009161;28;20033;-61
2024/01/21 13:41:13;;;;;;;19.83;6.17;;;;;;;;;;5009308;28;20505;-63
2024/01/21 13:43:38;;;;;;;21.07;5.67;;;;;;;;;;5008292;28;20264;-61
2024/01/21 13:46:04;;;;;;;18.27;5.35;;;;;;;;;;5007491;28;20276;-61
2024/01/21 13:48:29;;;;;;;18.23;6.10;;;;;;;;;;5007599;28;20096;-62
2024/01/21 13:50:54;;;;;;;17.67;5.23;;;;;;;;;;5005832;28;20520;-62
2024/01/21 13:53:19;;;;;;;19.40;5.65;;;;;;;;;;5007521;28;20025;-62
2024/01/21 13:55:45;;;;;;;17.80;5.50;;;;;;;;;;5007299;28;20021;-62
2024/01/21 13:58:10;;;;;;;18.98;5.95;;;;;;;;;;5007865;28;20557;-61
2024/01/21 14:00:36;;;;;;;19.38;6.43;;;;;;;;;;5009215;28;20029;-61
2024/01/21 14:03:02;;;;;;;17.80;5.57;;;;;;;;;;5009246;28;20458;-61
2024/01/21 14:05:27;;;;;;;19.35;6.97;;;;;;;;;;5009258;28;20044;-62
2024/01/21 14:07:53;;;;;;;21.90;6.43;;;;;;;;;;5008627;28;20393;-61
2024/01/21 14:10:18;;;;;;;19.48;5.93;;;;;;;;;;5008988;28;20025;-62
2024/01/21 14:12:44;;;;;;;18.85;5.55;;;;;;;;;;5009273;28;20450;-62
2024/01/21 14:15:09;;;;;;;20.77;6.40;;;;;;;;;;5008983;28;20029;-62
2024/01/21 14:17:35;;;;;;;21.40;6.68;;;;;;;;;;5009010;28;20026;-62
2024/01/21 14:20:00;;;;;;;18.23;5.85;;;;;;;;;;5009164;28;20482;-62
2024/01/21 14:22:25;;;;;;;19.17;6.28;;;;;;;;;;5009130;28;20018;-62